createdAt,value
2022-11-05T11:09:36.176Z,17.50
2022-11-05T11:12:05.428Z,22.27
2022-11-05T11:14:32.358Z,18.20
2022-11-05T11:17:27.083Z,15.37
2022-11-05T11:20:18.792Z,18.40
2022-11-05T11:23:15.033Z,13.97
2022-11-05T11:26:03.893Z,19.57
2022-11-05T11:28:58.583Z,17.70
2022-11-05T11:31:31.434Z,23.83
2022-11-05T11:34:11.580Z,17.70
2022-11-05T11:36:50.796Z,17.67
2022-11-05T11:39:25.033Z,13.03
2022-11-05T11:42:02.276Z,11.73
2022-11-05T11:44:34.394Z,16.70
2022-11-05T11:47:12.285Z,17.80
2022-11-05T11:49:46.007Z,14.50
2022-11-05T11:52:34.704Z,19.93
2022-11-05T11:55:21.819Z,14.53
2022-11-05T11:57:52.876Z,12.57
2022-11-05T12:00:23.478Z,12.93
2022-11-05T12:03:22.488Z,15.83
2022-11-05T12:06:01.845Z,13.30
2022-11-05T12:09:25.466Z,12.87
2022-11-05T12:12:14.098Z,17.67
2022-11-05T12:14:58.643Z,14.67
2022-11-05T12:17:34.347Z,15.00
2022-11-05T12:20:38.026Z,14.23
2022-11-05T12:23:04.621Z,14.23
2022-11-05T12:25:49.155Z,12.70
2022-11-05T12:28:57.731Z,15.20
2022-11-05T12:31:44.015Z,17.37
2022-11-05T12:34:37.857Z,18.53
2022-11-05T12:37:35.339Z,10.63
2022-11-05T12:40:20.294Z,15.93
2022-11-05T12:42:52.859Z,16.70
2022-11-05T12:45:47.131Z,19.47
2022-11-05T12:48:27.630Z,15.63
2022-11-05T12:51:30.421Z,13.17
2022-11-05T12:54:26.856Z,12.27
2022-11-05T12:56:58.180Z,17.20
2022-11-05T12:59:29.004Z,12.43
2022-11-05T13:02:06.492Z,12.77
2022-11-05T13:04:50.291Z,17.70
2022-11-05T13:07:32.221Z,12.03
2022-11-05T13:10:17.957Z,17.60
2022-11-05T13:12:49.297Z,12.60
2022-11-05T13:15:24.196Z,14.63
2022-11-05T13:17:58.470Z,15.10
2022-11-05T13:20:28.887Z,13.73
2022-11-05T13:23:26.266Z,14.93
2022-11-05T13:25:59.388Z,16.93
2022-11-05T13:28:41.236Z,17.43
2022-11-05T13:31:18.732Z,19.30
2022-11-05T13:33:49.612Z,11.27
2022-11-05T13:36:59.567Z,13.90
2022-11-05T13:39:31.813Z,14.07
2022-11-05T13:42:27.233Z,18.53
2022-11-05T13:45:18.408Z,18.60
2022-11-05T13:47:53.638Z,18.83
2022-11-05T13:50:42.007Z,20.03
2022-11-05T13:53:56.524Z,16.90
2022-11-05T13:56:47.745Z,15.03
2022-11-05T13:59:36.205Z,15.67
2022-11-05T14:02:13.971Z,15.37
2022-11-05T14:04:48.550Z,18.87
2022-11-05T14:07:26.563Z,15.97
2022-11-05T14:09:59.715Z,15.37
2022-11-05T14:12:35.769Z,15.10
2022-11-05T14:15:30.926Z,18.67
2022-11-05T14:18:18.850Z,25.63
2022-11-05T14:20:58.752Z,17.53
2022-11-05T14:23:25.470Z,16.90
2022-11-05T14:25:56.064Z,17.67
2022-11-05T14:28:34.690Z,16.53
2022-11-05T14:31:02.531Z,16.53
2022-11-05T14:33:29.055Z,16.50
2022-11-05T14:36:35.782Z,21.53
2022-11-05T14:39:26.069Z,24.13
2022-11-05T14:42:03.240Z,23.73
2022-11-05T14:44:35.010Z,22.23
2022-11-05T14:47:18.780Z,18.50
2022-11-05T14:49:53.946Z,16.93
2022-11-05T14:52:21.429Z,17.90
2022-11-05T14:54:55.127Z,26.43
2022-11-05T14:57:43.080Z,27.20
2022-11-05T15:00:34.132Z,36.30
2022-11-05T15:03:04.186Z,38.40
2022-11-05T15:05:53.085Z,30.30
2022-11-05T15:08:37.396Z,25.00
2022-11-05T15:11:14.513Z,23.07
2022-11-05T15:14:02.871Z,21.93
2022-11-05T15:16:42.750Z,27.27
2022-11-05T15:19:32.599Z,24.67
2022-11-05T15:22:03.244Z,19.43
2022-11-05T15:24:34.267Z,25.60
2022-11-05T15:27:18.588Z,27.53
2022-11-05T15:29:45.644Z,31.00
2022-11-05T15:32:18.363Z,33.43
2022-11-05T15:34:53.412Z,39.17
2022-11-05T15:37:25.885Z,32.60
2022-11-05T15:39:54.791Z,45.40
2022-11-05T15:42:26.128Z,42.87
2022-11-05T15:44:57.728Z,62.43
2022-11-05T15:47:34.158Z,46.30
2022-11-05T15:50:03.740Z,44.47
2022-11-05T15:52:42.333Z,34.47
2022-11-05T15:55:09.183Z,36.83
2022-11-05T15:57:40.100Z,36.47
2022-11-05T16:00:16.404Z,43.60
2022-11-05T16:02:43.530Z,64.80
2022-11-05T16:05:13.809Z,66.07
2022-11-05T16:07:45.446Z,51.57
2022-11-05T16:10:25.158Z,55.50
2022-11-05T16:12:51.826Z,73.90
2022-11-05T16:15:25.239Z,55.87
2022-11-05T16:17:58.287Z,43.60
2022-11-05T16:20:30.611Z,38.73
2022-11-05T16:23:00.400Z,37.73
2022-11-05T16:25:38.202Z,34.00
2022-11-05T16:28:18.508Z,40.93
2022-11-05T16:30:58.582Z,24.97
2022-11-05T16:33:27.318Z,28.27
2022-11-05T16:35:53.886Z,35.30
2022-11-05T16:38:21.200Z,23.30
2022-11-05T16:40:52.713Z,23.60
2022-11-05T16:43:24.696Z,18.43
2022-11-05T16:45:57.366Z,21.13
2022-11-05T16:48:24.941Z,21.50
2022-11-05T16:50:51.648Z,33.70
2022-11-05T16:53:19.614Z,27.37
2022-11-05T16:55:46.682Z,23.07
2022-11-05T16:58:22.495Z,23.30
2022-11-05T17:00:51.143Z,29.20
2022-11-05T17:03:17.949Z,30.00
2022-11-05T17:05:44.794Z,29.27
2022-11-05T17:08:11.745Z,31.27
2022-11-05T17:10:38.588Z,28.67
2022-11-05T17:13:05.205Z,35.37
2022-11-05T17:15:36.650Z,28.93
2022-11-05T17:18:15.369Z,25.67
2022-11-05T17:20:47.929Z,31.17
2022-11-05T17:23:17.191Z,30.50
2022-11-05T17:25:47.165Z,28.90
2022-11-05T17:28:15.081Z,31.47
2022-11-05T17:30:43.904Z,42.27
2022-11-05T17:33:12.179Z,29.30
2022-11-05T17:35:40.884Z,28.40
2022-11-05T17:38:08.444Z,21.67
2022-11-05T17:40:36.413Z,19.17
2022-11-05T17:43:03.732Z,24.73
2022-11-05T17:45:30.988Z,14.87
2022-11-05T17:47:57.784Z,19.33
2022-11-05T17:50:24.535Z,22.83
2022-11-05T17:52:51.359Z,24.03
2022-11-05T17:55:18.069Z,23.77
2022-11-05T17:57:47.471Z,22.40
2022-11-05T18:00:17.939Z,24.37
2022-11-05T18:02:46.181Z,22.60
2022-11-05T18:05:13.634Z,28.20
2022-11-05T18:07:40.966Z,28.57
2022-11-05T18:10:07.903Z,18.03
2022-11-05T18:12:36.055Z,20.83
2022-11-05T18:15:03.071Z,16.97
2022-11-05T18:17:29.752Z,33.57
2022-11-05T18:19:56.497Z,22.77
2022-11-05T18:22:23.222Z,20.47
2022-11-05T18:24:50.014Z,33.17
2022-11-05T18:27:16.650Z,21.67
2022-11-05T18:29:43.287Z,25.00
2022-11-05T18:32:10.028Z,27.13
2022-11-05T18:34:36.693Z,26.77
2022-11-05T18:37:03.733Z,21.60
2022-11-05T18:39:30.460Z,22.47
2022-11-05T18:41:57.109Z,21.67
2022-11-05T18:44:24.811Z,23.07
2022-11-05T18:46:58.175Z,20.63
2022-11-05T18:49:26.063Z,23.13
2022-11-05T18:51:52.706Z,30.47
2022-11-05T18:54:20.194Z,21.07
2022-11-05T18:56:46.891Z,22.00
2022-11-05T19:02:05.775Z,24.63
2022-11-05T19:04:32.935Z,26.40
2022-11-05T19:07:04.533Z,22.93
2022-11-05T19:09:39.383Z,21.43
2022-11-05T19:12:13.689Z,21.90
2022-11-05T19:14:47.243Z,21.13
2022-11-05T19:17:14.120Z,20.77
2022-11-05T19:19:41.823Z,18.60
2022-11-05T19:22:08.470Z,20.70
2022-11-05T19:24:35.062Z,23.50
2022-11-05T19:27:02.006Z,27.20
2022-11-05T19:29:28.658Z,21.47
2022-11-05T19:31:55.344Z,33.30
2022-11-05T19:34:21.919Z,26.60
2022-11-05T19:36:48.677Z,20.63
2022-11-05T19:39:15.337Z,26.80
2022-11-05T19:41:42.596Z,27.87
2022-11-05T19:44:09.252Z,24.77
2022-11-05T19:46:35.919Z,22.17
2022-11-05T19:49:03.267Z,25.50
2022-11-05T19:51:32.608Z,25.13
2022-11-05T19:54:01.281Z,25.20
2022-11-05T19:56:30.554Z,30.73
2022-11-05T19:58:58.412Z,25.93
2022-11-05T20:01:27.075Z,28.17
2022-11-05T20:03:56.112Z,23.63
2022-11-05T20:06:28.724Z,18.87
2022-11-05T20:11:48.786Z,23.70
2022-11-05T20:14:16.175Z,19.13
2022-11-05T20:16:43.193Z,23.23
2022-11-05T20:19:13.190Z,22.50
2022-11-05T20:21:40.448Z,17.60
2022-11-05T20:24:08.297Z,21.30
2022-11-05T20:26:35.064Z,16.20
2022-11-05T20:29:01.736Z,22.77
2022-11-05T20:31:28.711Z,20.27
2022-11-05T20:33:55.391Z,24.00
2022-11-05T20:36:24.859Z,21.77
2022-11-05T20:38:55.344Z,18.73
2022-11-05T20:41:22.830Z,23.03
2022-11-05T20:43:49.726Z,26.20
2022-11-05T20:46:19.215Z,27.30
2022-11-05T20:48:45.876Z,20.63
2022-11-05T20:51:24.234Z,22.53
2022-11-05T20:53:55.880Z,20.63
2022-11-05T20:56:25.337Z,18.37
2022-11-05T20:58:52.727Z,21.27
2022-11-05T21:01:19.837Z,21.27
2022-11-05T21:03:47.824Z,24.67
2022-11-05T21:06:15.184Z,22.27
2022-11-05T21:08:42.082Z,22.10
2022-11-05T21:11:10.120Z,20.80
2022-11-05T21:13:36.944Z,22.47
2022-11-05T21:16:07.056Z,20.83
2022-11-05T21:18:35.465Z,22.30
2022-11-05T21:21:18.908Z,20.27
2022-11-05T21:23:45.679Z,17.07
2022-11-05T21:26:14.509Z,24.53
2022-11-05T21:28:42.068Z,14.33
2022-11-05T21:31:09.615Z,20.37
2022-11-05T21:33:36.364Z,21.63
2022-11-05T21:36:08.582Z,19.30
2022-11-05T21:38:35.465Z,19.13
2022-11-05T21:41:03.248Z,19.30
2022-11-05T21:43:29.836Z,26.20
2022-11-05T21:46:01.866Z,24.03
2022-11-05T21:48:28.693Z,21.37
2022-11-05T21:51:14.007Z,19.87
2022-11-05T21:53:59.039Z,27.17
2022-11-05T21:56:45.490Z,25.40
2022-11-05T21:59:33.549Z,21.60
2022-11-05T22:02:03.600Z,21.17
2022-11-05T22:04:32.314Z,20.47
2022-11-05T22:06:59.606Z,24.23
2022-11-05T22:09:26.786Z,19.50
2022-11-05T22:11:54.102Z,29.63
2022-11-05T22:14:21.477Z,22.90
2022-11-05T22:16:48.581Z,26.33
2022-11-05T22:19:15.197Z,24.80
2022-11-05T22:21:42.100Z,20.87
2022-11-05T22:24:09.337Z,22.57
2022-11-05T22:26:36.260Z,24.07
2022-11-05T22:29:02.901Z,23.63
2022-11-05T22:31:35.663Z,23.47
2022-11-05T22:34:04.389Z,23.13
2022-11-05T22:36:31.146Z,21.47
2022-11-05T22:38:57.757Z,24.53
2022-11-05T22:41:24.358Z,23.90
2022-11-05T22:43:51.207Z,24.93
2022-11-05T22:46:21.020Z,20.77
2022-11-05T22:48:48.224Z,24.67
2022-11-05T22:51:18.024Z,21.80
2022-11-05T22:53:44.703Z,23.20
2022-11-05T22:56:14.203Z,21.13
2022-11-05T22:58:41.418Z,21.80
2022-11-05T23:01:11.933Z,20.23
2022-11-05T23:03:40.558Z,22.30
2022-11-05T23:06:31.594Z,22.27
2022-11-05T23:09:17.727Z,21.63
2022-11-05T23:11:48.568Z,25.13
2022-11-05T23:14:15.728Z,21.73
2022-11-05T23:17:02.094Z,23.20
2022-11-05T23:19:47.397Z,22.33
2022-11-05T23:22:36.987Z,18.77
2022-11-05T23:25:05.258Z,23.87
2022-11-05T23:27:37.070Z,19.60
2022-11-05T23:30:07.582Z,18.90
2022-11-05T23:32:34.506Z,20.83
2022-11-05T23:35:01.146Z,22.60
2022-11-05T23:37:49.081Z,21.73
2022-11-05T23:40:24.458Z,17.93
2022-11-05T23:43:09.882Z,20.87
2022-11-05T23:45:59.941Z,19.70
2022-11-05T23:48:33.811Z,16.53
2022-11-05T23:51:03.511Z,22.10
2022-11-05T23:53:32.659Z,17.57
2022-11-05T23:56:10.874Z,20.07
2022-11-05T23:58:38.859Z,21.20
